Flight Track Log - Related Links

Times and Time Zones

All times are in EDT time to prevent confusion due to time zone crossing. See the AZU2489 flight status page for this flight to view local times or setup timezone preferences in your user account.

Time Position Orientation Groundspeed Altitude Reporting Facility
EDT Latitude Longitude Course Direction KTS MPH feet Rate Location/Type
Sun 03:03:43 PM -19.8500 -43.9523 110° East 117 135 2,300  Level FlightAware ADS-B (SBCF / CNF)
Sun 03:03:59 PM -19.8533 -43.9431 112° Southeast 119 137 2,700 1,714 Climbing FlightAware ADS-B (SBCF / CNF)
Sun 03:04:18 PM -19.8574 -43.9325 113° Southeast 121 139 3,300 1,765 Climbing FlightAware ADS-B
Sun 03:04:33 PM -19.8609 -43.9243 114° Southeast 120 138 3,700 1,355 Climbing FlightAware ADS-B (SBCF / CNF)
Sun 03:04:49 PM -19.8642 -43.9161 113° Southeast 125 144 4,000 1,000 Climbing FlightAware ADS-B (SBCF / CNF)
Sun 03:05:03 PM -19.8679 -43.9071 112° Southeast 135 155 4,200 960 Climbing FlightAware ADS-B
Sun 03:05:14 PM -19.8707 -43.9008 118° Southeast 141 162 4,400 750 Climbing FlightAware ADS-B (SBCF / CNF)
Sun 03:05:19 PM -19.8725 -43.8975 123° Southeast 146 168 4,400 667 Level FlightAware ADS-B (SBCF / CNF)
Sun 03:05:23 PM -19.8746 -43.8950 134° Southeast 154 177 4,500 667 Climbing FlightAware ADS-B (SBCF / CNF)
Sun 03:05:28 PM -19.8777 -43.8925 146° Southeast 163 188 4,500  Level FlightAware ADS-B (SBCF / CNF)
Sun 03:05:33 PM -19.8812 -43.8908 159° South 171 197 4,500 600 Level FlightAware ADS-B (SBCF / CNF)
Sun 03:05:38 PM -19.8853 -43.8899 173° South 180 207 4,600 600 Climbing FlightAware ADS-B (SBCF / CNF)
Sun 03:05:43 PM -19.8888 -43.8900 184° South 185 213 4,600 600 Level FlightAware ADS-B
Sun 03:05:48 PM -19.8938 -43.8913 199° South 191 220 4,700 1,200 Climbing FlightAware ADS-B (SBCF / CNF)
Sun 03:05:53 PM -19.8978 -43.8935 212° Southwest 193 222 4,800 1,200 Climbing FlightAware ADS-B
Sun 03:05:58 PM -19.9014 -43.8967 224° Southwest 195 224 4,900 1,091 Climbing FlightAware ADS-B (SBCF / CNF)
Sun 03:06:04 PM -19.9042 -43.9003 235° Southwest 197 227 5,000 600 Climbing FlightAware ADS-B (SBCF / CNF)
Sun 03:06:08 PM -19.9065 -43.9047 246° West 199 229 5,000 600 Level FlightAware ADS-B (SBCF / CNF)
Sun 03:06:14 PM -19.9077 -43.9092 258° West 198 228 5,100 1,200 Climbing FlightAware ADS-B (SBCF / CNF)
Sun 03:06:18 PM -19.9083 -43.9140 267° West 196 226 5,200 1,200 Climbing FlightAware ADS-B (SBCF / CNF)
Sun 03:06:34 PM -19.9084 -43.9285 270° West 199 229 5,500 1,143 Climbing FlightAware ADS-B (SBCF / CNF)
Sun 03:06:39 PM -19.9085 -43.9344 268° West 199 229 5,600 1,200 Climbing FlightAware ADS-B
Sun 03:06:59 PM -19.9102 -43.9532 266° West 200 230 6,000 1,250 Climbing FlightAware ADS-B (SBCF / CNF)
Sun 03:07:03 PM -19.9101 -43.9582 276° West 199 229 6,100 2,000 Climbing FlightAware ADS-B (SBCF / CNF)
Sun 03:07:08 PM -19.9091 -43.9629 286° West 197 227 6,300 1,800 Climbing FlightAware ADS-B (SBCF / CNF)
Sun 03:07:13 PM -19.9076 -43.9666 296° West 194 223 6,400 1,091 Climbing FlightAware ADS-B (SBCF / CNF)
Sun 03:07:19 PM -19.9050 -43.9711 306° West 192 221 6,500 1,200 Climbing FlightAware ADS-B (SBCF / CNF)
Sun 03:07:23 PM -19.9019 -43.9746 318° Northwest 191 220 6,600 1,200 Climbing FlightAware ADS-B (SBCF / CNF)
Sun 03:07:29 PM -19.8981 -43.9774 329° Northwest 189 217 6,700 1,200 Climbing FlightAware ADS-B (SBCF / CNF)
Sun 03:07:33 PM -19.8949 -43.9791 336° Northwest 189 217 6,800 1,263 Climbing FlightAware ADS-B (SBCF / CNF)
Sun 03:07:48 PM -19.8819 -43.9848 339° North 192 221 7,100 1,000 Climbing FlightAware ADS-B (SBCF / CNF)
Sun 03:08:03 PM -19.8693 -43.9900 340° North 195 224 7,300 1,000 Climbing FlightAware ADS-B (SBCF / CNF)
Sun 03:08:18 PM -19.8565 -43.9951 340° North 198 228 7,600 968 Climbing FlightAware ADS-B (SBCF / CNF)
Sun 03:08:34 PM -19.8439 -44.0002 340° North 200 230 7,800 818 Climbing FlightAware ADS-B (SBCF / CNF)
Sun 03:08:40 PM -19.8379 -44.0026 343° North 201 231 7,900 1,200 Climbing FlightAware ADS-B
Sun 03:08:49 PM -19.8297 -44.0046 351° North 200 230 8,100 1,043 Climbing FlightAware ADS-B (SBCF / CNF)
Sun 03:09:03 PM -19.8161 -44.0067 352° North 202 232 8,300 1,034 Climbing FlightAware ADS-B (SBCF / CNF)
Sun 03:09:18 PM -19.8020 -44.0090 352° North 204 235 8,600 968 Climbing FlightAware ADS-B (SBCF / CNF)
Sun 03:09:34 PM -19.7876 -44.0113 352° North 205 236 8,800 968 Climbing FlightAware ADS-B (SBCF / CNF)
Sun 03:09:49 PM -19.7733 -44.0136 352° North 203 234 9,100 1,241 Climbing FlightAware ADS-B (SBCF / CNF)
Sun 03:10:03 PM -19.7599 -44.0158 352° North 198 228 9,400 1,263 Climbing FlightAware ADS-B (SBCF / CNF)
Sun 03:10:08 PM -19.7559 -44.0164 351° North 201 231 9,500 1,200 Climbing FlightAware ADS-B (KFLL)
Sun 03:10:18 PM -19.7463 -44.0180 352° North 199 229 9,700 960 Climbing FlightAware ADS-B (SBCF / CNF)
Sun 03:10:33 PM -19.7324 -44.0203 351° North 200 230 9,900 900 Climbing FlightAware ADS-B (SBCF / CNF)
Sun 03:10:38 PM -19.7277 -44.0215 344° North 201 231 10,000 1,200 Climbing FlightAware ADS-B (SBCF / CNF)
Sun 03:10:48 PM -19.7197 -44.0265 319° Northwest 200 230 10,200 706 Climbing FlightAware ADS-B (SBCF / CNF)
Sun 03:10:55 PM -19.7159 -44.0317 305° West 200 230 10,200 600 Level FlightAware ADS-B
Sun 03:10:58 PM -19.7145 -44.0346 294° West 202 232 10,300 1,333 Climbing FlightAware ADS-B (SBCF / CNF)
Sun 03:11:04 PM -19.7132 -44.0397 280° West 201 231 10,400 600 Climbing FlightAware ADS-B
Sun 03:11:18 PM -19.7134 -44.0542 263° West 203 234 10,500 818 Climbing FlightAware ADS-B (SBCF / CNF)
Sun 03:11:48 PM -19.7197 -44.0836 256° West 205 236 11,000 900 Climbing FlightAware ADS-B (SBCF / CNF)
Sun 03:12:18 PM -19.7265 -44.1129 257° West 203 234 11,400 800 Climbing FlightAware ADS-B (SBCF / CNF)
Sun 03:12:48 PM -19.7323 -44.1424 264° West 205 236 11,800 800 Climbing FlightAware ADS-B (SBCF / CNF)
Sun 03:13:18 PM -19.7319 -44.1725 273° West 206 237 12,200 787 Climbing FlightAware ADS-B (SBCF / CNF)
Sun 03:13:49 PM -19.7308 -44.2030 272° West 205 236 12,600 700 Climbing FlightAware ADS-B (SBCF / CNF)
Sun 03:14:18 PM -19.7317 -44.2326 251° West 204 235 12,900 615 Climbing FlightAware ADS-B (SBCF / CNF)
Sun 03:14:28 PM -19.7368 -44.2416 231° Southwest 203 234 13,000 600 Climbing FlightAware ADS-B (SBCF / CNF)
Sun 03:14:58 PM -19.7566 -44.2638 226° Southwest 209 241 13,300 689 Climbing FlightAware ADS-B (SBCF / CNF)
Sun 03:15:29 PM -19.7771 -44.2857 226° Southwest 207 238 13,700 800 Climbing FlightAware ADS-B (SBCF / CNF)
Sun 03:15:58 PM -19.7968 -44.3071 226° Southwest 201 231 14,100 814 Climbing FlightAware ADS-B (SBCF / CNF)
Sun 03:16:28 PM -19.8162 -44.3282 226° Southwest 195 224 14,500 700 Climbing FlightAware ADS-B (SBCF / CNF)
Sun 03:16:58 PM -19.8351 -44.3487 226° Southwest 196 226 14,800 700 Climbing FlightAware ADS-B (SBCF / CNF)
Sun 03:17:28 PM -19.8545 -44.3699 226° Southwest 196 226 15,200 621 Climbing FlightAware ADS-B (SBCF / CNF)
Sun 03:17:56 PM -19.8287 -44.3418 226° Southwest 198 228 15,400 400 Climbing FlightAware ADS-B (KFLL)
Sun 03:17:58 PM -19.8739 -44.3909 226° Southwest 198 228 15,400 545 Level FlightAware ADS-B (SBCF / CNF)
Sun 03:18:29 PM -19.8933 -44.4121 226° Southwest 198 228 15,700 545 Climbing FlightAware ADS-B (SBCF / CNF)
Sun 03:18:31 PM -19.8951 -44.4140 226° Southwest 198 228 15,700 621 Level FlightAware ADS-B (KFLL)
Sun 03:18:58 PM -19.9127 -44.4332 226° Southwest 200 230 16,000 526 Climbing FlightAware ADS-B (SBCF / CNF)
Sun 03:19:28 PM -19.9323 -44.4545 226° Southwest 202 232 16,200 500 Climbing FlightAware ADS-B (SBCF / CNF)
Sun 03:19:58 PM -19.9518 -44.4756 226° Southwest 202 232 16,500 500 Climbing FlightAware ADS-B (SBCF / CNF)
Sun 03:20:28 PM -19.9717 -44.4973 226° Southwest 203 234 16,700 421 Climbing FlightAware ADS-B (SBCF / CNF)
Sun 03:20:55 PM -19.9898 -44.5170 226° Southwest 205 236 16,900 400 Climbing FlightAware ADS-B (KFLL)
Sun 03:20:58 PM -19.9918 -44.5191 226° Southwest 205 236 16,900 545 Level FlightAware ADS-B (SBCF / CNF)
Sun 03:21:28 PM -20.0115 -44.5406 226° Southwest 204 235 17,200 545 Climbing FlightAware ADS-B (SBCF / CNF)
Sun 03:21:31 PM -20.0136 -44.5429 226° Southwest 205 236 17,200 439 Level FlightAware ADS-B (KFLL)
Sun 03:22:09 PM -20.0406 -44.5667 206° Southwest 205 236 17,500 391 Climbing FlightAware ADS-B (SBCF / CNF)
Sun 03:22:17 PM -20.0482 -44.5701 203° Southwest 205 236 17,500 414 Level FlightAware ADS-B (KFLL)
Sun 03:22:38 PM -20.0669 -44.5786 204° Southwest 205 236 17,700 462 Climbing FlightAware ADS-B (SBCF / CNF)
Sun 03:22:56 PM -20.0804 -44.5847 203° Southwest 206 237 17,800 194 Climbing FlightAware ADS-B (KFLL)
Sun 03:23:09 PM -20.0932 -44.5905 204° Southwest 206 237 17,800 300 Level FlightAware ADS-B (SBCF / CNF)
Sun 03:23:36 PM -20.1183 -44.6019 203° Southwest 208 239 18,000 414 Climbing FlightAware ADS-B (KFLL)
Sun 03:23:38 PM -20.1196 -44.6025 203° Southwest 207 238 18,000 261 Level FlightAware ADS-B (SBCF / CNF)
Sun 03:23:59 PM -20.1378 -44.6107 204° Southwest 208 239 18,100 769 Climbing FlightAware ADS-B (SBCF / CNF)
Sun 03:24:17 PM -20.1537 -44.6180 203° Southwest 197 227 18,500 1,200 Climbing FlightAware ADS-B (KFLL)
Sun 03:24:29 PM -20.1630 -44.6222 204° Southwest 188 216 18,700 923 Climbing FlightAware ADS-B (SBCF / CNF)
Sun 03:24:56 PM -20.1847 -44.6320 203° Southwest 180 207 19,100 1,034 Climbing FlightAware ADS-B (KFLL)
Sun 03:24:58 PM -20.1866 -44.6328 204° Southwest 179 206 19,200 750 Climbing FlightAware ADS-B (SBCF / CNF)
Sun 03:25:28 PM -20.2092 -44.6431 204° Southwest 176 203 19,500 474 Climbing FlightAware ADS-B (SBCF / CNF)
Sun 03:25:36 PM -20.2156 -44.6460 203° Southwest 177 204 19,500 200 Level FlightAware ADS-B (KFLL)
Sun 03:25:58 PM -20.2324 -44.6536 204° Southwest 181 208 19,600 293 Climbing FlightAware ADS-B (SBCF / CNF)
Sun 03:26:17 PM -20.2469 -44.6602 203° Southwest 185 213 19,700 400 Climbing FlightAware ADS-B (KFLL)
Sun 03:26:28 PM -20.2552 -44.6640 204° Southwest 185 213 19,800 293 Climbing FlightAware ADS-B (SBCF / CNF)
Sun 03:26:58 PM -20.2750 -44.6730 203° Southwest 190 219 19,900 333 Climbing FlightAware ADS-B (KFLL)
Sun 03:27:04 PM -20.2845 -44.6772 204° Southwest 191 220 20,000 150 Climbing FlightAware ADS-B (SBCF / CNF)
Sun 03:27:38 PM -20.3133 -44.6904 203° Southwest 201 231 20,000  Level FlightAware ADS-B (KFLL)
Sun 03:27:43 PM -20.3178 -44.6924 204° Southwest 202 232 20,000  Level FlightAware ADS-B (SBCF / CNF)
Sun 03:28:13 PM -20.3441 -44.7045 204° Southwest 213 245 20,000  Level FlightAware ADS-B (SBCF / CNF)
Sun 03:28:18 PM -20.3489 -44.7067 203° Southwest 216 249 20,000  Level FlightAware ADS-B (KFLL)
Sun 03:28:43 PM -20.3727 -44.7175 204° Southwest 222 255 20,000  Level FlightAware ADS-B (SBCF / CNF)
Sun 03:28:58 PM -20.3866 -44.7238 203° Southwest 225 259 20,000  Level FlightAware ADS-B (KFLL)
Sun 03:29:14 PM -20.4018 -44.7308 204° Southwest 228 262 20,000  Level FlightAware ADS-B (SBCF / CNF)
Sun 03:29:37 PM -20.4247 -44.7412 203° Southwest 230 265 20,000 353 Level FlightAware ADS-B (KFLL)
Sun 03:29:48 PM -20.4356 -44.7462 204° Southwest 223 257 20,200 1,317 Climbing FlightAware ADS-B (SBCF / CNF)
Sun 03:30:18 PM -20.4620 -44.7581 203° Southwest 195 224 20,900 1,200 Climbing FlightAware ADS-B (KFLL)
Sun 03:30:48 PM -20.4858 -44.7692 206° Southwest 177 204 21,400 923 Climbing FlightAware ADS-B (SBCF / CNF)
Sun 03:30:57 PM -20.4922 -44.7731 212° Southwest 176 203 21,500 600 Climbing FlightAware ADS-B (KFLL)
Sun 03:31:08 PM -20.4995 -44.7786 217° Southwest 177 204 21,600 293 Climbing FlightAware ADS-B (SBCF / CNF)
Sun 03:31:38 PM -20.5195 -44.7943 217° Southwest 182 209 21,700 185 Climbing FlightAware ADS-B (KFLL)
Sun 03:32:13 PM -20.5437 -44.8132 217° Southwest 185 213 21,800 154 Climbing FlightAware ADS-B (SBCF / CNF)
Sun 03:32:17 PM -20.5465 -44.8154 216° Southwest 186 214 21,800 293 Level FlightAware ADS-B (KFLL)
Sun 03:32:54 PM -20.5722 -44.8355 217° Southwest 190 219 22,000 300 Climbing FlightAware ADS-B (SBCF / CNF)
Sun 03:32:57 PM -20.5746 -44.8374 216° Southwest 191 220 22,000  Level FlightAware ADS-B (KFLL)
Sun 03:33:37 PM -20.6037 -44.8601 216° Southwest 197 227 22,000  Level FlightAware ADS-B (KFLL)
Sun 03:33:38 PM -20.6045 -44.8607 217° Southwest 198 228 22,000  Level FlightAware ADS-B (SBCF / CNF)
Sun 03:34:08 PM -20.6273 -44.8786 217° Southwest 204 235 22,000  Level FlightAware ADS-B (SBCF / CNF)
Sun 03:34:17 PM -20.6338 -44.8836 216° Southwest 207 238 22,000  Level FlightAware ADS-B (KFLL)
Sun 03:34:39 PM -20.6508 -44.8969 217° Southwest 211 243 22,000  Level FlightAware ADS-B (SBCF / CNF)
Sun 03:34:58 PM -20.6657 -44.9086 216° Southwest 215 247 22,000  Level FlightAware ADS-B (KFLL)
Sun 03:35:08 PM -20.6744 -44.9154 217° Southwest 216 249 22,000  Level FlightAware ADS-B (SBCF / CNF)
Sun 03:35:37 PM -20.6983 -44.9340 216° Southwest 218 251 22,000  Level FlightAware ADS-B (KFLL)
Sun 03:35:39 PM -20.6995 -44.9350 217° Southwest 218 251 22,000  Level FlightAware ADS-B (SBCF / CNF)
Sun 03:36:08 PM -20.7237 -44.9538 217° Southwest 221 254 22,000  Level FlightAware ADS-B (SBCF / CNF)
Sun 03:36:18 PM -20.7318 -44.9602 216° Southwest 222 255 22,000  Level FlightAware ADS-B (KFLL)
Sun 03:36:39 PM -20.7491 -44.9741 220° Southwest 223 257 22,000  Level FlightAware ADS-B (SBCF / CNF)
Sun 03:36:57 PM -20.7614 -44.9849 219° Southwest 224 258 22,000  Level FlightAware ADS-B (KFLL)
Sun 03:37:08 PM -20.7723 -44.9945 220° Southwest 224 258 22,000  Level FlightAware ADS-B (SBCF / CNF)
Sun 03:37:38 PM -20.7953 -45.0146 220° Southwest 225 259 22,000  Level FlightAware ADS-B (KFLL)
Sun 03:38:09 PM -20.8218 -45.0378 220° Southwest 225 259 22,000  Level FlightAware ADS-B (SBCF / CNF)
Sun 03:38:18 PM -20.8274 -45.0427 219° Southwest 225 259 22,000  Level FlightAware ADS-B (KFLL)
Sun 03:38:38 PM -20.8451 -45.0582 220° Southwest 225 259 22,000  Level FlightAware ADS-B (SBCF / CNF)
Sun 03:38:58 PM -20.8600 -45.0713 220° Southwest 226 260 22,000  Level FlightAware ADS-B (KFLL)
Sun 03:39:08 PM -20.8700 -45.0801 220° Southwest 225 259 22,000  Level FlightAware ADS-B (SBCF / CNF)
Sun 03:39:37 PM -20.8916 -45.0990 219° Southwest 227 261 22,000  Level FlightAware ADS-B (KFLL)
Sun 03:39:39 PM -20.8945 -45.1016 220° Southwest 226 260 22,000  Level FlightAware ADS-B (SBCF / CNF)
Sun 03:40:08 PM -20.9188 -45.1228 220° Southwest 228 262 22,000  Level FlightAware ADS-B (SBCF / CNF)
Sun 03:40:17 PM -20.9265 -45.1296 220° Southwest 229 264 22,000  Level FlightAware ADS-B (KFLL)
Sun 03:40:39 PM -20.9437 -45.1447 220° Southwest 228 262 22,000  Level FlightAware ADS-B (SBCF / CNF)
Sun 03:40:56 PM -20.9582 -45.1574 220° Southwest 228 262 22,000  Level FlightAware ADS-B (KFLL)
Sun 03:41:08 PM -20.9680 -45.1660 220° Southwest 228 262 22,000  Level FlightAware ADS-B (SBCF / CNF)
Sun 03:41:38 PM -20.9927 -45.1878 220° Southwest 228 262 22,000  Level FlightAware ADS-B (SBCF / CNF)
Sun 03:42:09 PM -21.0169 -45.2090 220° Southwest 227 261 22,000  Level FlightAware ADS-B (SBCF / CNF)
Sun 03:42:15 PM -21.0096 -45.2026 220° Southwest 227 261 22,000  Level FlightAware ADS-B (KFLL)
Sun 03:42:38 PM -21.0409 -45.2301 220° Southwest 226 260 22,000  Level FlightAware ADS-B (SBCF / CNF)
Sun 03:43:38 PM -21.0902 -45.2735 220° Southwest 225 259 22,000  Level FlightAware ADS-B (SBCF / CNF)
Sun 03:44:08 PM -21.1146 -45.2951 220° Southwest 227 261 22,000  Level FlightAware ADS-B (SBCF / CNF)
Sun 03:44:33 PM -21.1350 -45.3131 220° Southwest 227 261 22,000  Level FlightAware ADS-B (SBCF / CNF)
Sun 03:45:08 PM -21.1632 -45.3379 219° Southwest 229 264 22,000  Level FlightAware ADS-B (SBCF / CNF)
Sun 03:45:48 PM -21.1987 -45.3640 215° Southwest 229 264 22,000  Level FlightAware ADS-B (SBCF / CNF)
Sun 03:46:18 PM -21.2250 -45.3831 215° Southwest 229 264 22,000  Level FlightAware ADS-B (SBCF / CNF)
Sun 03:46:48 PM -21.2507 -45.4018 215° Southwest 231 266 22,000  Level FlightAware ADS-B (SBCF / CNF)
Sun 03:47:19 PM -21.2789 -45.4223 215° Southwest 231 266 22,000  Level FlightAware ADS-B (SBCF / CNF)
Sun 03:47:48 PM -21.3053 -45.4415 215° Southwest 231 266 22,000  Level FlightAware ADS-B (SBCF / CNF)
Sun 03:48:18 PM -21.3319 -45.4609 215° Southwest 231 266 22,000  Level FlightAware ADS-B (SBCF / CNF)
Sun 03:48:48 PM -21.3576 -45.4795 215° Southwest 229 264 22,000  Level FlightAware ADS-B (SBCF / CNF)
Sun 03:49:18 PM -21.3847 -45.4993 215° Southwest 228 262 22,000  Level FlightAware ADS-B (SBCF / CNF)
Sun 03:49:48 PM -21.4109 -45.5183 215° Southwest 228 262 22,000  Level FlightAware ADS-B (SBCF / CNF)
Sun 03:50:18 PM -21.4373 -45.5375 215° Southwest 227 261 22,000  Level FlightAware ADS-B (SBCF / CNF)
Sun 03:50:48 PM -21.4632 -45.5564 215° Southwest 227 261 22,000  Level FlightAware ADS-B (SBCF / CNF)
Sun 03:51:18 PM -21.4897 -45.5757 215° Southwest 227 261 22,000  Level FlightAware ADS-B (SBCF / CNF)
Sun 03:51:48 PM -21.5162 -45.5952 215° Southwest 226 260 22,000  Level FlightAware ADS-B (SBCF / CNF)
Sun 03:52:19 PM -21.5425 -45.6144 215° Southwest 226 260 22,000  Level FlightAware ADS-B (SBCF / CNF)
Sun 03:52:49 PM -21.5685 -45.6334 215° Southwest 226 260 22,000  Level FlightAware ADS-B (SBCF / CNF)
Sun 03:53:17 PM -21.5894 -45.6486 215° Southwest 226 260 22,000  Level FlightAware ADS-B (SBCF / CNF)
Sun 03:53:48 PM -21.6208 -45.6716 215° Southwest 226 260 22,000  Level FlightAware ADS-B (SBCF / CNF)
Sun 03:54:22 PM -21.6495 -45.6926 215° Southwest 225 259 22,000  Level FlightAware ADS-B (SDAM)
Sun 03:54:51 PM -21.6752 -45.7114 215° Southwest 225 259 22,000  Level FlightAware ADS-B (SDAM)
Sun 03:55:21 PM -21.7011 -45.7304 215° Southwest 225 259 22,000  Level FlightAware ADS-B (SDAM)
Sun 03:55:51 PM -21.7261 -45.7487 215° Southwest 224 258 22,000  Level FlightAware ADS-B (SDAM)
Sun 03:56:21 PM -21.7529 -45.7683 215° Southwest 224 258 22,000  Level FlightAware ADS-B (SDAM)
Sun 03:56:52 PM -21.7788 -45.7873 215° Southwest 224 258 22,000  Level FlightAware ADS-B (SDAM)
Sun 03:57:21 PM -21.8045 -45.8062 215° Southwest 224 258 22,000  Level FlightAware ADS-B (SDAM)
Sun 03:57:51 PM -21.8305 -45.8253 215° Southwest 223 257 22,000  Level FlightAware ADS-B (SDAM)
Sun 03:58:51 PM -21.8815 -45.8643 217° Southwest 225 259 22,000  Level FlightAware ADS-B (SDAM)
Sun 03:59:21 PM -21.9067 -45.8846 217° Southwest 225 259 22,000  Level FlightAware ADS-B (SDAM)
Sun 03:59:51 PM -21.9319 -45.9046 217° Southwest 225 259 22,000  Level FlightAware ADS-B (SDAM)
Sun 04:00:22 PM -21.9575 -45.9250 217° Southwest 226 260 22,000  Level FlightAware ADS-B (SDAM)
Sun 04:00:52 PM -21.9822 -45.9447 217° Southwest 226 260 22,000  Level FlightAware ADS-B (SDAM)
Sun 04:01:22 PM -22.0081 -45.9653 217° Southwest 226 260 22,000  Level FlightAware ADS-B (SDAM)
Sun 04:01:51 PM -22.0333 -45.9855 217° Southwest 227 261 22,000  Level FlightAware ADS-B (SDAM)
Sun 04:02:21 PM -22.0589 -46.0059 217° Southwest 226 260 22,000  Level FlightAware ADS-B (SDAM)
Sun 04:02:51 PM -22.0843 -46.0261 217° Southwest 226 260 22,000  Level FlightAware ADS-B (SDAM)
Sun 04:03:21 PM -22.1079 -46.0450 217° Southwest 226 260 22,000  Level FlightAware ADS-B (SDAM)
Sun 04:03:51 PM -22.1343 -46.0660 217° Southwest 225 259 22,000  Level FlightAware ADS-B (SDAM)
Sun 04:04:22 PM -22.1603 -46.0868 217° Southwest 225 259 22,000  Level FlightAware ADS-B (SDAM)
Sun 04:04:51 PM -22.1846 -46.1062 217° Southwest 225 259 22,000  Level FlightAware ADS-B (SDAM)
Sun 04:05:22 PM -22.2107 -46.1270 217° Southwest 225 259 22,000  Level FlightAware ADS-B (SDAM)
Sun 04:05:49 PM -22.2339 -46.1456 217° Southwest 224 258 22,000  Level FlightAware ADS-B (SDAM)
Sun 04:06:21 PM -22.2605 -46.1669 217° Southwest 224 258 22,000  Level FlightAware ADS-B (SDAM)
Sun 04:06:52 PM -22.2862 -46.1875 217° Southwest 224 258 22,000  Level FlightAware ADS-B (SDAM)
Sun 04:07:22 PM -22.3115 -46.2077 217° Southwest 224 258 22,000  Level FlightAware ADS-B (SDAM)
Sun 04:07:50 PM -22.3351 -46.2266 217° Southwest 224 258 22,000  Level FlightAware ADS-B (SDAM)
Sun 04:08:21 PM -22.3604 -46.2469 217° Southwest 224 258 22,000  Level FlightAware ADS-B (SDAM)
Sun 04:08:51 PM -22.3864 -46.2677 217° Southwest 224 258 22,000  Level FlightAware ADS-B (SDAM)
Sun 04:09:11 PM -22.4029 -46.2809 215° Southwest 224 258 22,000  Level FlightAware ADS-B (SDAM)
Sun 04:09:20 PM -22.4116 -46.2858 204° Southwest 227 261 22,000  Level FlightAware ADS-B
Sun 04:09:30 PM -22.4198 -46.2882 189° South 232 267 22,000  Level FlightAware ADS-B
Sun 04:09:41 PM -22.4343 -46.2888 180° South 235 270 22,000  Level FlightAware ADS-B (SDAM)
Sun 04:10:11 PM -22.4669 -46.2885 179° South 236 272 22,000  Level FlightAware ADS-B (SDAM)
Sun 04:10:42 PM -22.5002 -46.2881 179° South 237 273 22,000  Level FlightAware ADS-B (SDAM)
Sun 04:11:11 PM -22.5320 -46.2878 179° South 236 272 22,000  Level FlightAware ADS-B (SDAM)
Sun 04:11:42 PM -22.5662 -46.2874 179° South 237 273 22,000  Level FlightAware ADS-B (SDAM)
Sun 04:12:11 PM -22.5989 -46.2871 179° South 238 274 22,000  Level FlightAware ADS-B (SDAM)
Sun 04:12:41 PM -22.6324 -46.2868 179° South 238 274 22,000 -92 Level FlightAware ADS-B (SDAM)
Sun 04:13:16 PM -22.6709 -46.2864 179° South 243 280 21,900 -369 Descending FlightAware ADS-B (SDAM)
Sun 04:13:46 PM -22.7058 -46.2862 179° South 252 290 21,600 -500 Descending FlightAware ADS-B (SDAM)
Sun 04:14:16 PM -22.7416 -46.2854 178° South 259 298 21,400 -700 Descending FlightAware ADS-B (SDAM)
Sun 04:14:46 PM -22.7778 -46.2845 178° South 258 297 20,900 -1,000 Descending FlightAware ADS-B (SDAM)
Sun 04:15:16 PM -22.8132 -46.2836 178° South 253 291 20,400 -900 Descending FlightAware ADS-B (SDAM)
Sun 04:15:46 PM -22.8484 -46.2827 178° South 254 292 20,000 -689 Descending FlightAware ADS-B (SDAM)
Sun 04:16:17 PM -22.8837 -46.2818 178° South 251 289 19,700 -500 Descending FlightAware ADS-B (SDAM)
Sun 04:16:46 PM -22.9188 -46.2811 178° South 254 292 19,500 -508 Descending FlightAware ADS-B (SDAM)
Sun 04:17:16 PM -22.9539 -46.2803 178° South 251 289 19,200 -558 Descending FlightAware ADS-B (SDAM)
Sun 04:17:29 PM -22.9688 -46.2806 188° South 245 282 19,100 -600 Descending FlightAware ADS-B
Sun 04:17:36 PM -22.9769 -46.2829 201° Southwest 240 276 19,000 -706 Descending FlightAware ADS-B (SDAM)
Sun 04:17:46 PM -22.9863 -46.2890 217° Southwest 236 272 18,900 -600 Descending FlightAware ADS-B (SDAM)
Sun 04:17:56 PM -22.9932 -46.2976 237° Southwest 235 270 18,800 -286 Descending FlightAware ADS-B (SDAM)
Sun 04:18:07 PM -22.9976 -46.3091 256° West 238 274 18,800 -585 Level FlightAware ADS-B (SDAM)
Sun 04:18:37 PM -23.0046 -46.3448 255° West 241 277 18,400 -915 Descending FlightAware ADS-B (SDAM)
Sun 04:19:06 PM -23.0137 -46.3792 255° West 236 272 17,900 -1,017 Descending FlightAware ADS-B (SDAM)
Sun 04:19:36 PM -23.0224 -46.4133 255° West 235 270 17,400 -1,043 Descending FlightAware ADS-B (SDAM)
Sun 04:19:52 PM -23.0264 -46.4286 254° West 235 270 17,100 -968 Descending FlightAware ADS-B
Sun 04:20:07 PM -23.0313 -46.4472 255° West 238 274 16,900 -1,412 Descending FlightAware ADS-B (SDAM)
Sun 04:20:09 PM -23.0323 -46.4510 255° West 240 276 16,700 -1,200 Descending FlightAware ADS-B
Sun 04:20:37 PM -23.0406 -46.4824 253° West 246 283 16,300 -811 Descending FlightAware ADS-B (SDAM)
Sun 04:20:46 PM -23.0456 -46.4925 232° Southwest 243 280 16,200 -900 Descending FlightAware ADS-B (SDAM)
Sun 04:20:57 PM -23.0546 -46.5017 221° Southwest 241 277 16,000 -1,024 Descending FlightAware ADS-B (SDAM)
Sun 04:21:27 PM -23.0794 -46.5248 222° Southwest 232 267 15,500 -1,050 Descending FlightAware ADS-B (SDAM)
Sun 04:21:37 PM -23.0879 -46.5325 216° Southwest 231 266 15,300 -1,043 Descending FlightAware ADS-B (SDAM)
Sun 04:21:50 PM -23.1010 -46.5399 204° Southwest 228 262 15,100 -800 Descending FlightAware ADS-B
Sun 04:21:52 PM -23.1016 -46.5402 204° Southwest 229 264 15,100 -1,200 Level FlightAware ADS-B
Sun 04:22:20 PM -23.1303 -46.5529 203° Southwest 234 269 14,500 -1,435 Descending FlightAware ADS-B
Sun 04:22:38 PM -23.1487 -46.5616 203° Southwest 235 270 14,000 -1,742 Descending FlightAware ADS-B
Sun 04:22:51 PM -23.1601 -46.5672 205° Southwest 237 273 13,600 -1,714 Descending FlightAware ADS-B
Sun 04:23:13 PM -23.1817 -46.5780 205° Southwest 256 295 13,000 -1,800 Descending FlightAware ADS-B
Sun 04:23:21 PM -23.1920 -46.5832 206° Southwest 265 305 12,700 -1,800 Descending FlightAware ADS-B
Sun 04:23:43 PM -23.2184 -46.5970 206° Southwest 278 320 12,100 -1,655 Descending FlightAware ADS-B
Sun 04:23:50 PM -23.2266 -46.6014 206° Southwest 276 318 11,900 -1,935 Descending FlightAware ADS-B
Sun 04:24:14 PM -23.2545 -46.6159 205° Southwest 278 320 11,100 -2,000 Descending FlightAware ADS-B
Sun 04:24:20 PM -23.2615 -46.6195 206° Southwest 275 316 10,900 -2,063 Descending FlightAware ADS-B
Sun 04:24:46 PM -23.2904 -46.6345 206° Southwest 263 303 10,000 -2,000 Descending FlightAware ADS-B
Sun 04:24:50 PM -23.2950 -46.6369 206° Southwest 260 299 9,900 -1,895 Descending FlightAware ADS-B
Sun 04:25:05 PM -23.3105 -46.6449 205° Southwest 252 290 9,400 -2,000 Descending FlightAware ADS-B
Sun 04:25:20 PM -23.3272 -46.6535 206° Southwest 245 282 8,900 -2,100 Descending FlightAware ADS-B
Sun 04:25:25 PM -23.3318 -46.6559 205° Southwest 245 282 8,700 -1,875 Descending FlightAware ADS-B
Sun 04:25:36 PM -23.3425 -46.6614 206° Southwest 240 276 8,400 -1,800 Descending FlightAware ADS-B
Sun 04:25:45 PM -23.3513 -46.6660 206° Southwest 239 275 8,100 -2,000 Descending FlightAware ADS-B
Sun 04:25:51 PM -23.3578 -46.6693 206° Southwest 237 273 7,900 -2,000 Descending FlightAware ADS-B
Sun 04:26:00 PM -23.3662 -46.6737 206° Southwest 236 272 7,600 -2,000 Descending FlightAware ADS-B
Sun 04:26:06 PM -23.3724 -46.6770 206° Southwest 235 270 7,400 -2,000 Descending FlightAware ADS-B
Sun 04:26:15 PM -23.3824 -46.6821 205° Southwest 234 269 7,100 -2,182 Descending FlightAware ADS-B
Sun 04:26:17 PM -23.3827 -46.6823 205° Southwest 234 269 7,000 -2,400 Descending FlightAware ADS-B (SDAM)
Sun 04:26:20 PM -23.3863 -46.6840 200° South 234 269 6,900 -3,000 Descending FlightAware ADS-B
Sun 04:26:21 PM -23.3885 -46.6848 200° South 234 269 6,800 -2,400 Descending FlightAware ADS-B (SDAM)
Sun 04:26:25 PM -23.3923 -46.6859 193° South 234 269 6,700 -1,333 Descending FlightAware ADS-B
Sun 04:26:30 PM -23.3976 -46.6868 185° South 233 268 6,600 -1,800 Descending FlightAware ADS-B
Sun 04:26:35 PM -23.4031 -46.6867 176° South 232 267 6,400 -2,000 Descending FlightAware ADS-B
Sun 04:26:36 PM -23.4035 -46.6867 174° South 232 267 6,400 -2,400 Level FlightAware ADS-B
Sun 04:26:40 PM -23.4088 -46.6857 168° South 230 265 6,200 -2,400 Descending FlightAware ADS-B
Sun 04:26:41 PM -23.4083 -46.6858 168° South 230 265 6,200 -1,200 Level FlightAware ADS-B
Sun 04:26:55 PM -23.4238 -46.6817 165° South 221 254 5,900 -1,200 Descending FlightAware ADS-B
Sun 04:26:56 PM -23.4243 -46.6815 166° South 221 254 5,900 -800 Level FlightAware ADS-B
Sun 04:27:10 PM -23.4384 -46.6776 165° South 209 241 5,700 -889 Descending FlightAware ADS-B
Sun 04:27:23 PM -23.4473 -46.6751 165° South 198 228 5,500 -600 Descending FlightAware ADS-B (SDAM)
Sun 04:27:30 PM -23.4562 -46.6726 166° South 192 221 5,500  Level FlightAware ADS-B
Sun 04:27:45 PM -23.4690 -46.6687 159° South 188 216 5,500  Level FlightAware ADS-B
Sun 04:27:46 PM -23.4677 -46.6692 163° South 188 216 5,500  Level FlightAware ADS-B
Sun 04:27:50 PM -23.4722 -46.6670 149° Southeast 188 216 5,500  Level FlightAware ADS-B
Sun 04:27:51 PM -23.4731 -46.6664 146° Southeast 189 217 5,500  Level FlightAware ADS-B
Sun 04:27:55 PM -23.4761 -46.6636 134° Southeast 188 216 5,500  Level FlightAware ADS-B
Sun 04:27:57 PM -23.4772 -46.6621 129° Southeast 188 216 5,500  Level FlightAware ADS-B
Sun 04:28:00 PM -23.4788 -46.6597 123° Southeast 186 214 5,500  Level FlightAware ADS-B
Sun 04:28:03 PM -23.4800 -46.6577 122° Southeast 187 215 5,500  Level FlightAware ADS-B
Sun 04:28:06 PM -23.4811 -46.6556 119° Southeast 190 219 5,500 -1,200 Level FlightAware ADS-B (SDAM)
Sun 04:28:08 PM -23.4822 -46.6534 117° Southeast 191 220 5,400 -2,000 Descending FlightAware ADS-B
Sun 04:28:15 PM -23.4837 -46.6464 94° East 197 227 5,200 -1,500 Descending FlightAware ADS-B
Sun 04:28:20 PM -23.4836 -46.6423 87° East 198 228 5,100 -1,000 Descending FlightAware ADS-B
Sun 04:28:21 PM -23.4835 -46.6414 81° East 198 228 5,100 -1,200 Level FlightAware ADS-B
Sun 04:28:25 PM -23.4823 -46.6366 72° East 196 226 5,000 -1,579 Descending FlightAware ADS-B
Sun 04:28:40 PM -23.4772 -46.6233 66° East 188 216 4,600 -1,200 Descending FlightAware ADS-B
Sun 04:28:45 PM -23.4757 -46.6196 67° East 186 214 4,600 -800 Level FlightAware ADS-B
Sun 04:28:55 PM -23.4722 -46.6101 69° East 177 204 4,400 -1,200 Descending FlightAware ADS-B
Sun 04:29:00 PM -23.4711 -46.6065 71° East 176 203 4,300 -750 Descending FlightAware ADS-B
Sun 04:29:11 PM -23.4685 -46.5976 72° East 166 191 4,200 -800 Descending FlightAware ADS-B
Sun 04:29:15 PM -23.4673 -46.5942 69° East 165 190 4,100 -667 Descending FlightAware ADS-B
Sun 04:29:20 PM -23.4654 -46.5901 61° Northeast 161 185 4,100 -300 Level FlightAware ADS-B
Sun 04:29:35 PM -23.4610 -46.5803 68° East 140 161 4,000 -600 Descending FlightAware ADS-B
Sun 04:29:50 PM -23.4578 -46.5708 70° East 119 137 3,800 -774 Descending FlightAware ADS-B
Sun 04:30:06 PM -23.4556 -46.5629 72° East 106 122 3,600 -1,000 Descending FlightAware ADS-B
Sun 04:30:20 PM -23.4533 -46.5551 73° East 103 119 3,300 -1,200 Descending FlightAware ADS-B
Sun 04:30:21 PM -23.4532 -46.5547 73° East 103 119 3,300 -750 Level FlightAware ADS-B
Sun 04:30:36 PM -23.4511 -46.5473 74° East 108 124 3,100 -632 Descending FlightAware ADS-B
Sun 04:30:40 PM -23.4504 -46.5448 75° East 112 129 3,100  Level FlightAware ADS-B
Sun 04:30:51 PM -23.4491 -46.5396 74° East 110 127 3,100 -316 Level FlightAware ADS-B
Sun 04:30:59 PM -23.4480 -46.5350 76° East 109 125 3,000 -429 Descending FlightAware ADS-B
Sun 04:31:05 PM -23.4471 -46.5312 75° East 109 125 3,000 -316 Level FlightAware ADS-B
Sun 04:31:18 PM -23.4453 -46.5242 74° East 109 125 2,900 -800 Descending FlightAware ADS-B
Sun 04:31:20 PM -23.4451 -46.5235 74° East 109 125 2,800 -706 Descending FlightAware ADS-B
Sun 04:31:35 PM -23.4428 -46.5154 73° East 106 122 2,700 -387 Descending FlightAware ADS-B
Sun 04:31:51 PM -23.4411 -46.5089 74° East 108 124 2,600 -571 Descending FlightAware ADS-B
Sun 04:31:56 PM -23.4406 -46.5069 74° East 107 123 2,500 -1,200 Descending FlightAware ADS-B
Sun 04:34:00 PM -23.4321 -46.4695 76° East  Level Estimated
Sun 04:35:00 PM -23.4321 -46.4695 North  Level Estimated
Sun 04:36:00 PM -23.4321 -46.4695 North  Level Estimated
Sun 04:37:00 PM -23.4321 -46.4695 North  Level Estimated
Sun 04:38:00 PM -23.4321 -46.4695 North  Level Estimated
Sun 04:39:00 PM -23.4321 -46.4695 North  Level Estimated
Sun 04:40:00 PM -23.4321 -46.4695 North  Level Estimated
Sun 04:41:00 PM -23.4321 -46.4695 North  Level Estimated
Sun 04:42:00 PM -23.4321 -46.4695 North  Level Estimated
Sun 04:43:00 PM -23.4321 -46.4695 North  Level Estimated
Sun 04:44:00 PM -23.4321 -46.4695 North  Level Estimated

Login

Don't have an account? Register now (free) for customized features, flight alerts, and more!